M/y A.b.normal — 2DLI6 — position and weather

sailwx.info

Track history (hours):
 
Tides and Currents Weather Stations Pressure Air Temp Water Temp Dewpoint Dewpoint Depression Visibility Wind Speed Wind Dir Waves Ship Positions

M/y A.b.normal

Last reported at 2016-Aug-25 04:23 UTC. Time now 2016-Aug-25 06:17 UTC.
Position N 39°32' E 002°34'.

Length 28 m; draft 2.8 m.

Type: Pleasure craft. MMSI: 235079977.

Date/timePositionNaut miles runAvg speedWind from/ knotsBaromVisibWave heightAir tempDewpointWater temp
2016-Aug-25 04:23N 39°32' E 002°34'0 0.0
2016-Aug-25 03:23N 39°32' E 002°34'0 0.0
2016-Aug-25 02:23N 39°32' E 002°34'0 0.0
2016-Aug-25 01:29N 39°32' E 002°34'0 0.0
2016-Aug-25 00:11N 39°32' E 002°34'0 0.0
2016-Aug-24 23:29N 39°32' E 002°34'0 0.0
2016-Aug-24 17:11N 39°32' E 002°34'4 4.9
2016-Aug-24 16:23N 39°28' E 002°31'0 0.0
2016-Aug-24 15:20N 39°28' E 002°31'0 0.0
2016-Aug-24 14:29N 39°28' E 002°31'0 0.0
2016-Aug-24 13:23N 39°28' E 002°31'0 0.0
2016-Aug-24 12:32N 39°28' E 002°31'0 0.0
2016-Aug-24 11:29N 39°28' E 002°31'0 0.0
2016-Aug-24 10:23N 39°28' E 002°31'0 0.0
2016-Aug-24 09:08N 39°28' E 002°31'0 0.0
2016-Aug-24 07:29N 39°28' E 002°31'0 0.5
2016-Aug-24 06:33N 39°28' E 002°32'18 8.9
2016-Aug-24 04:34N 39°17' E 002°13'10 9.9
2016-Aug-24 03:33N 39°12' E 002°03'10 9.9
2016-Aug-24 02:33N 39°06' E 001°52'10 9.9
2016-Aug-24 01:32N 39°01' E 001°41'10 9.8
2016-Aug-24 00:33N 38°55' E 001°31'7 0.7
2016-Aug-23 14:28N 38°50' E 001°24'0 0.0
2016-Aug-23 13:28N 38°50' E 001°24'0 0.0
2016-Aug-23 11:22N 38°50' E 001°24'2 1.6
2016-Aug-23 10:21N 38°51' E 001°26'  
Track history (hours):
 
Tides and Currents Weather Stations Pressure Air Temp Water Temp Dewpoint Dewpoint Depression Visibility Wind Speed Wind Dir Waves Ship Positions

M/y A.b.normal

Last reported at 2016-Aug-25 04:23 UTC. Time now 2016-Aug-25 06:17 UTC.
Position N 39°32' E 002°34'.

Length 28 m; draft 2.8 m.

Type: Pleasure craft. MMSI: 235079977.

Date/timePositionNaut miles runAvg speedWind from/ knotsBaromVisibWave heightAir tempDewpointWater temp
2016-Aug-25 04:23N 39°32' E 002°34'0 0.0
2016-Aug-25 03:23N 39°32' E 002°34'0 0.0
2016-Aug-25 02:23N 39°32' E 002°34'0 0.0
2016-Aug-25 01:29N 39°32' E 002°34'0 0.0
2016-Aug-25 00:11N 39°32' E 002°34'0 0.0
2016-Aug-24 23:29N 39°32' E 002°34'0 0.0
2016-Aug-24 17:11N 39°32' E 002°34'4 4.9
2016-Aug-24 16:23N 39°28' E 002°31'0 0.0
2016-Aug-24 15:20N 39°28' E 002°31'0 0.0
2016-Aug-24 14:29N 39°28' E 002°31'0 0.0
2016-Aug-24 13:23N 39°28' E 002°31'0 0.0
2016-Aug-24 12:32N 39°28' E 002°31'0 0.0
2016-Aug-24 11:29N 39°28' E 002°31'0 0.0
2016-Aug-24 10:23N 39°28' E 002°31'0 0.0
2016-Aug-24 09:08N 39°28' E 002°31'0 0.0
2016-Aug-24 07:29N 39°28' E 002°31'0 0.5
2016-Aug-24 06:33N 39°28' E 002°32'18 8.9
2016-Aug-24 04:34N 39°17' E 002°13'10 9.9
2016-Aug-24 03:33N 39°12' E 002°03'10 9.9
2016-Aug-24 02:33N 39°06' E 001°52'10 9.9
2016-Aug-24 01:32N 39°01' E 001°41'10 9.8
2016-Aug-24 00:33N 38°55' E 001°31'7 0.7
2016-Aug-23 14:28N 38°50' E 001°24'0 0.0
2016-Aug-23 13:28N 38°50' E 001°24'0 0.0
2016-Aug-23 11:22N 38°50' E 001°24'2 1.6
2016-Aug-23 10:21N 38°51' E 001°26'  

Dump ship's entire track history